sensor_id;sensor_type;location;lat;lon;timestamp;temperature;humidity
54202;DHT22;40108;53.152;5.844;2023-12-20T00:02:19;6.10;98.00
54202;DHT22;40108;53.152;5.844;2023-12-20T00:04:44;6.00;97.90
54202;DHT22;40108;53.152;5.844;2023-12-20T00:07:10;5.90;98.00
54202;DHT22;40108;53.152;5.844;2023-12-20T00:09:37;5.90;97.80
54202;DHT22;40108;53.152;5.844;2023-12-20T00:12:02;5.80;97.70
54202;DHT22;40108;53.152;5.844;2023-12-20T00:14:28;5.80;97.80
54202;DHT22;40108;53.152;5.844;2023-12-20T00:16:54;5.70;97.70
54202;DHT22;40108;53.152;5.844;2023-12-20T00:19:19;5.60;97.70
54202;DHT22;40108;53.152;5.844;2023-12-20T00:21:45;5.60;97.70
54202;DHT22;40108;53.152;5.844;2023-12-20T00:24:11;5.60;97.70
54202;DHT22;40108;53.152;5.844;2023-12-20T00:26:36;5.60;97.80
54202;DHT22;40108;53.152;5.844;2023-12-20T00:29:02;5.60;97.80
54202;DHT22;40108;53.152;5.844;2023-12-20T00:31:28;5.60;97.80
54202;DHT22;40108;53.152;5.844;2023-12-20T00:33:53;5.60;97.80
54202;DHT22;40108;53.152;5.844;2023-12-20T00:36:20;5.70;97.80
54202;DHT22;40108;53.152;5.844;2023-12-20T00:38:45;5.70;97.90
54202;DHT22;40108;53.152;5.844;2023-12-20T00:41:11;5.70;97.80
54202;DHT22;40108;53.152;5.844;2023-12-20T00:43:37;5.70;97.80
54202;DHT22;40108;53.152;5.844;2023-12-20T00:46:02;5.70;97.80
54202;DHT22;40108;53.152;5.844;2023-12-20T00:48:28;5.70;97.80
54202;DHT22;40108;53.152;5.844;2023-12-20T00:50:56;5.80;97.80
54202;DHT22;40108;53.152;5.844;2023-12-20T00:53:22;5.90;97.80
54202;DHT22;40108;53.152;5.844;2023-12-20T00:55:47;5.90;97.80
54202;DHT22;40108;53.152;5.844;2023-12-20T00:58:13;5.90;97.80
54202;DHT22;40108;53.152;5.844;2023-12-20T01:00:40;5.90;97.70
54202;DHT22;40108;53.152;5.844;2023-12-20T01:03:07;6.00;97.80
54202;DHT22;40108;53.152;5.844;2023-12-20T01:05:33;5.90;97.70
54202;DHT22;40108;53.152;5.844;2023-12-20T01:07:58;6.00;97.70
54202;DHT22;40108;53.152;5.844;2023-12-20T01:10:24;6.00;97.70
54202;DHT22;40108;53.152;5.844;2023-12-20T01:12:53;6.10;97.70
54202;DHT22;40108;53.152;5.844;2023-12-20T01:15:19;6.10;97.70
54202;DHT22;40108;53.152;5.844;2023-12-20T01:17:44;6.10;97.70
54202;DHT22;40108;53.152;5.844;2023-12-20T01:20:10;6.10;97.60
54202;DHT22;40108;53.152;5.844;2023-12-20T01:22:36;6.10;97.50
54202;DHT22;40108;53.152;5.844;2023-12-20T01:25:02;6.20;97.50
54202;DHT22;40108;53.152;5.844;2023-12-20T01:27:28;6.20;97.40
54202;DHT22;40108;53.152;5.844;2023-12-20T01:29:54;6.20;97.40
54202;DHT22;40108;53.152;5.844;2023-12-20T01:32:20;6.40;97.30
54202;DHT22;40108;53.152;5.844;2023-12-20T01:34:45;6.50;97.30
54202;DHT22;40108;53.152;5.844;2023-12-20T01:37:11;6.50;97.20
54202;DHT22;40108;53.152;5.844;2023-12-20T01:39:37;6.50;97.10
54202;DHT22;40108;53.152;5.844;2023-12-20T01:42:03;6.60;97.00
54202;DHT22;40108;53.152;5.844;2023-12-20T01:44:28;6.50;97.00
54202;DHT22;40108;53.152;5.844;2023-12-20T01:46:54;6.60;97.00
54202;DHT22;40108;53.152;5.844;2023-12-20T01:49:21;6.60;96.90
54202;DHT22;40108;53.152;5.844;2023-12-20T01:51:47;6.60;96.90
54202;DHT22;40108;53.152;5.844;2023-12-20T01:54:13;6.60;96.80
54202;DHT22;40108;53.152;5.844;2023-12-20T01:56:40;6.60;96.80
54202;DHT22;40108;53.152;5.844;2023-12-20T01:59:06;6.60;96.70
54202;DHT22;40108;53.152;5.844;2023-12-20T02:01:33;6.60;96.60
54202;DHT22;40108;53.152;5.844;2023-12-20T02:03:59;6.60;96.50
54202;DHT22;40108;53.152;5.844;2023-12-20T02:06:29;6.60;96.50
54202;DHT22;40108;53.152;5.844;2023-12-20T02:08:56;6.60;96.50
54202;DHT22;40108;53.152;5.844;2023-12-20T02:11:22;6.70;96.50
54202;DHT22;40108;53.152;5.844;2023-12-20T02:13:48;6.70;96.30
54202;DHT22;40108;53.152;5.844;2023-12-20T02:16:14;6.70;96.20
54202;DHT22;40108;53.152;5.844;2023-12-20T02:18:39;6.70;96.10
54202;DHT22;40108;53.152;5.844;2023-12-20T02:21:05;6.70;96.00
54202;DHT22;40108;53.152;5.844;2023-12-20T02:23:31;6.70;96.00
54202;DHT22;40108;53.152;5.844;2023-12-20T02:25:57;6.70;96.00
54202;DHT22;40108;53.152;5.844;2023-12-20T02:28:23;6.70;96.00
54202;DHT22;40108;53.152;5.844;2023-12-20T02:30:48;6.70;95.90
54202;DHT22;40108;53.152;5.844;2023-12-20T02:33:15;6.70;95.80
54202;DHT22;40108;53.152;5.844;2023-12-20T02:35:41;6.70;95.70
54202;DHT22;40108;53.152;5.844;2023-12-20T02:38:06;6.70;95.60
54202;DHT22;40108;53.152;5.844;2023-12-20T02:40:32;6.70;95.60
54202;DHT22;40108;53.152;5.844;2023-12-20T02:42:58;6.60;95.50
54202;DHT22;40108;53.152;5.844;2023-12-20T02:45:24;6.70;95.40
54202;DHT22;40108;53.152;5.844;2023-12-20T02:47:50;6.60;95.40
54202;DHT22;40108;53.152;5.844;2023-12-20T02:50:15;6.60;95.30
54202;DHT22;40108;53.152;5.844;2023-12-20T02:52:44;6.60;95.30
54202;DHT22;40108;53.152;5.844;2023-12-20T02:55:10;6.60;95.30
54202;DHT22;40108;53.152;5.844;2023-12-20T02:57:35;6.60;95.20
54202;DHT22;40108;53.152;5.844;2023-12-20T03:00:02;6.60;95.20
54202;DHT22;40108;53.152;5.844;2023-12-20T03:02:27;6.60;95.10
54202;DHT22;40108;53.152;5.844;2023-12-20T03:04:53;6.60;95.20
54202;DHT22;40108;53.152;5.844;2023-12-20T03:07:19;6.60;95.20
54202;DHT22;40108;53.152;5.844;2023-12-20T03:09:45;6.60;95.20
54202;DHT22;40108;53.152;5.844;2023-12-20T03:12:11;6.60;95.10
54202;DHT22;40108;53.152;5.844;2023-12-20T03:14:36;6.60;95.10
54202;DHT22;40108;53.152;5.844;2023-12-20T03:17:02;6.60;95.00
54202;DHT22;40108;53.152;5.844;2023-12-20T03:19:28;6.60;95.00
54202;DHT22;40108;53.152;5.844;2023-12-20T03:21:54;6.60;95.00
54202;DHT22;40108;53.152;5.844;2023-12-20T03:24:20;6.70;94.90
54202;DHT22;40108;53.152;5.844;2023-12-20T03:26:45;6.70;94.90
54202;DHT22;40108;53.152;5.844;2023-12-20T03:29:11;6.70;94.90
54202;DHT22;40108;53.152;5.844;2023-12-20T03:31:37;6.70;94.90
54202;DHT22;40108;53.152;5.844;2023-12-20T03:34:02;6.70;94.90
54202;DHT22;40108;53.152;5.844;2023-12-20T03:36:28;6.70;94.80
54202;DHT22;40108;53.152;5.844;2023-12-20T03:38:54;6.80;94.70
54202;DHT22;40108;53.152;5.844;2023-12-20T03:41:19;6.80;94.70
54202;DHT22;40108;53.152;5.844;2023-12-20T03:43:45;6.90;94.70
54202;DHT22;40108;53.152;5.844;2023-12-20T03:46:11;6.80;94.60
54202;DHT22;40108;53.152;5.844;2023-12-20T03:48:37;6.80;94.70
54202;DHT22;40108;53.152;5.844;2023-12-20T03:51:02;6.80;94.60
54202;DHT22;40108;53.152;5.844;2023-12-20T03:53:28;6.90;94.60
54202;DHT22;40108;53.152;5.844;2023-12-20T03:55:54;6.90;94.50
54202;DHT22;40108;53.152;5.844;2023-12-20T03:58:19;6.90;94.50
54202;DHT22;40108;53.152;5.844;2023-12-20T04:00:45;7.00;94.50
54202;DHT22;40108;53.152;5.844;2023-12-20T04:03:11;6.90;94.50
54202;DHT22;40108;53.152;5.844;2023-12-20T04:05:40;7.00;94.50
54202;DHT22;40108;53.152;5.844;2023-12-20T04:08:06;7.00;94.50
54202;DHT22;40108;53.152;5.844;2023-12-20T04:10:31;7.00;94.40
54202;DHT22;40108;53.152;5.844;2023-12-20T04:12:57;7.00;94.40
54202;DHT22;40108;53.152;5.844;2023-12-20T04:15:22;6.90;94.40
54202;DHT22;40108;53.152;5.844;2023-12-20T04:17:48;6.90;94.40
54202;DHT22;40108;53.152;5.844;2023-12-20T04:20:14;6.90;94.50
54202;DHT22;40108;53.152;5.844;2023-12-20T04:22:39;7.00;94.60
54202;DHT22;40108;53.152;5.844;2023-12-20T04:25:05;6.90;94.50
54202;DHT22;40108;53.152;5.844;2023-12-20T04:27:31;7.00;94.60
54202;DHT22;40108;53.152;5.844;2023-12-20T04:29:57;7.00;94.60
54202;DHT22;40108;53.152;5.844;2023-12-20T04:32:22;7.00;94.60
54202;DHT22;40108;53.152;5.844;2023-12-20T04:34:48;7.10;94.60
54202;DHT22;40108;53.152;5.844;2023-12-20T04:37:14;7.00;94.60
54202;DHT22;40108;53.152;5.844;2023-12-20T04:39:39;7.10;94.60
54202;DHT22;40108;53.152;5.844;2023-12-20T04:42:06;7.10;94.60
54202;DHT22;40108;53.152;5.844;2023-12-20T04:44:32;7.10;94.50
54202;DHT22;40108;53.152;5.844;2023-12-20T04:46:58;7.10;94.50
54202;DHT22;40108;53.152;5.844;2023-12-20T04:49:24;7.10;94.50
54202;DHT22;40108;53.152;5.844;2023-12-20T04:51:49;7.10;94.60
54202;DHT22;40108;53.152;5.844;2023-12-20T04:54:15;7.10;94.50
54202;DHT22;40108;53.152;5.844;2023-12-20T04:56:41;7.10;94.50
54202;DHT22;40108;53.152;5.844;2023-12-20T04:59:07;7.10;94.50
54202;DHT22;40108;53.152;5.844;2023-12-20T05:01:32;7.20;94.40
54202;DHT22;40108;53.152;5.844;2023-12-20T05:03:58;7.20;94.40
54202;DHT22;40108;53.152;5.844;2023-12-20T05:06:24;7.20;94.30
54202;DHT22;40108;53.152;5.844;2023-12-20T05:08:50;7.20;94.30
54202;DHT22;40108;53.152;5.844;2023-12-20T05:11:15;7.20;94.20
54202;DHT22;40108;53.152;5.844;2023-12-20T05:13:42;7.20;94.10
54202;DHT22;40108;53.152;5.844;2023-12-20T05:16:08;7.20;94.10
54202;DHT22;40108;53.152;5.844;2023-12-20T05:18:34;7.20;94.00
54202;DHT22;40108;53.152;5.844;2023-12-20T05:21:00;7.30;94.10
54202;DHT22;40108;53.152;5.844;2023-12-20T05:23:26;7.30;94.10
54202;DHT22;40108;53.152;5.844;2023-12-20T05:25:52;7.20;94.10
54202;DHT22;40108;53.152;5.844;2023-12-20T05:28:17;7.30;94.10
54202;DHT22;40108;53.152;5.844;2023-12-20T05:30:43;7.40;94.10
54202;DHT22;40108;53.152;5.844;2023-12-20T05:33:09;7.30;94.10
54202;DHT22;40108;53.152;5.844;2023-12-20T05:35:35;7.40;94.10
54202;DHT22;40108;53.152;5.844;2023-12-20T05:38:00;7.40;94.00
54202;DHT22;40108;53.152;5.844;2023-12-20T05:40:26;7.30;94.00
54202;DHT22;40108;53.152;5.844;2023-12-20T05:42:51;7.40;93.90
54202;DHT22;40108;53.152;5.844;2023-12-20T05:45:17;7.40;93.80
54202;DHT22;40108;53.152;5.844;2023-12-20T05:47:43;7.40;93.70
54202;DHT22;40108;53.152;5.844;2023-12-20T05:50:08;7.50;93.70
54202;DHT22;40108;53.152;5.844;2023-12-20T05:52:34;7.40;93.50
54202;DHT22;40108;53.152;5.844;2023-12-20T05:55:00;7.40;93.40
54202;DHT22;40108;53.152;5.844;2023-12-20T05:57:28;7.50;93.40
54202;DHT22;40108;53.152;5.844;2023-12-20T05:59:54;7.50;93.40
54202;DHT22;40108;53.152;5.844;2023-12-20T06:02:19;7.40;93.40
54202;DHT22;40108;53.152;5.844;2023-12-20T06:04:45;7.50;93.40
54202;DHT22;40108;53.152;5.844;2023-12-20T06:07:16;7.50;93.30
54202;DHT22;40108;53.152;5.844;2023-12-20T06:09:41;7.50;93.20
54202;DHT22;40108;53.152;5.844;2023-12-20T06:12:07;7.50;93.10
54202;DHT22;40108;53.152;5.844;2023-12-20T06:14:36;7.60;92.90
54202;DHT22;40108;53.152;5.844;2023-12-20T06:17:02;7.60;92.90
54202;DHT22;40108;53.152;5.844;2023-12-20T06:19:28;7.60;92.80
54202;DHT22;40108;53.152;5.844;2023-12-20T06:21:54;7.60;92.70
54202;DHT22;40108;53.152;5.844;2023-12-20T06:24:19;7.60;92.80
54202;DHT22;40108;53.152;5.844;2023-12-20T06:26:45;7.60;92.70
54202;DHT22;40108;53.152;5.844;2023-12-20T06:29:11;7.50;92.80
54202;DHT22;40108;53.152;5.844;2023-12-20T06:31:37;7.60;92.80
54202;DHT22;40108;53.152;5.844;2023-12-20T06:34:03;7.60;92.70
54202;DHT22;40108;53.152;5.844;2023-12-20T06:36:28;7.60;92.70
54202;DHT22;40108;53.152;5.844;2023-12-20T06:38:54;7.60;92.70
54202;DHT22;40108;53.152;5.844;2023-12-20T06:41:20;7.60;92.60
54202;DHT22;40108;53.152;5.844;2023-12-20T06:43:45;7.60;92.60
54202;DHT22;40108;53.152;5.844;2023-12-20T06:46:12;7.70;92.70
54202;DHT22;40108;53.152;5.844;2023-12-20T06:48:39;7.70;92.70
54202;DHT22;40108;53.152;5.844;2023-12-20T06:51:05;7.70;92.80
54202;DHT22;40108;53.152;5.844;2023-12-20T06:53:31;7.70;92.80
54202;DHT22;40108;53.152;5.844;2023-12-20T06:55:57;7.70;92.80
54202;DHT22;40108;53.152;5.844;2023-12-20T06:58:23;7.70;92.80
54202;DHT22;40108;53.152;5.844;2023-12-20T07:00:50;7.70;92.70
54202;DHT22;40108;53.152;5.844;2023-12-20T07:03:15;7.70;92.70
54202;DHT22;40108;53.152;5.844;2023-12-20T07:05:42;7.70;92.80
54202;DHT22;40108;53.152;5.844;2023-12-20T07:08:07;7.70;92.80
54202;DHT22;40108;53.152;5.844;2023-12-20T07:10:33;7.70;92.70
54202;DHT22;40108;53.152;5.844;2023-12-20T07:12:59;7.60;92.70
54202;DHT22;40108;53.152;5.844;2023-12-20T07:15:25;7.60;92.70
54202;DHT22;40108;53.152;5.844;2023-12-20T07:17:53;7.60;92.70
54202;DHT22;40108;53.152;5.844;2023-12-20T07:20:18;7.60;92.70
54202;DHT22;40108;53.152;5.844;2023-12-20T07:22:44;7.60;92.60
54202;DHT22;40108;53.152;5.844;2023-12-20T07:25:10;7.50;92.50
54202;DHT22;40108;53.152;5.844;2023-12-20T07:27:36;7.50;92.30
54202;DHT22;40108;53.152;5.844;2023-12-20T07:30:01;7.60;92.30
54202;DHT22;40108;53.152;5.844;2023-12-20T07:32:27;7.60;92.40
54202;DHT22;40108;53.152;5.844;2023-12-20T07:34:53;7.60;92.40
54202;DHT22;40108;53.152;5.844;2023-12-20T07:37:20;7.70;92.40
54202;DHT22;40108;53.152;5.844;2023-12-20T07:39:46;7.70;92.40
54202;DHT22;40108;53.152;5.844;2023-12-20T07:42:12;7.70;92.50
54202;DHT22;40108;53.152;5.844;2023-12-20T07:44:38;7.70;92.50
54202;DHT22;40108;53.152;5.844;2023-12-20T07:47:04;7.70;92.50
54202;DHT22;40108;53.152;5.844;2023-12-20T07:49:31;7.70;92.50
54202;DHT22;40108;53.152;5.844;2023-12-20T07:51:57;7.70;92.50
54202;DHT22;40108;53.152;5.844;2023-12-20T07:54:23;7.70;92.50
54202;DHT22;40108;53.152;5.844;2023-12-20T07:56:49;7.70;92.60
54202;DHT22;40108;53.152;5.844;2023-12-20T07:59:14;7.70;92.50
54202;DHT22;40108;53.152;5.844;2023-12-20T08:01:40;7.70;92.20
54202;DHT22;40108;53.152;5.844;2023-12-20T08:04:05;7.60;92.10
54202;DHT22;40108;53.152;5.844;2023-12-20T08:06:31;7.50;92.30
54202;DHT22;40108;53.152;5.844;2023-12-20T08:08:57;7.40;92.50
54202;DHT22;40108;53.152;5.844;2023-12-20T08:11:23;7.30;92.70
54202;DHT22;40108;53.152;5.844;2023-12-20T08:13:48;7.30;92.90
54202;DHT22;40108;53.152;5.844;2023-12-20T08:16:14;7.30;93.30
54202;DHT22;40108;53.152;5.844;2023-12-20T08:18:41;7.30;93.50
54202;DHT22;40108;53.152;5.844;2023-12-20T08:21:07;7.30;93.70
54202;DHT22;40108;53.152;5.844;2023-12-20T08:23:34;7.30;93.80
54202;DHT22;40108;53.152;5.844;2023-12-20T08:26:07;7.30;93.80
54202;DHT22;40108;53.152;5.844;2023-12-20T08:28:33;7.40;93.80
54202;DHT22;40108;53.152;5.844;2023-12-20T08:30:59;7.40;93.90
54202;DHT22;40108;53.152;5.844;2023-12-20T08:33:24;7.40;93.90
54202;DHT22;40108;53.152;5.844;2023-12-20T08:35:50;7.50;94.00
54202;DHT22;40108;53.152;5.844;2023-12-20T08:38:16;7.60;93.90
54202;DHT22;40108;53.152;5.844;2023-12-20T08:40:43;7.60;93.90
54202;DHT22;40108;53.152;5.844;2023-12-20T08:43:09;7.60;93.90
54202;DHT22;40108;53.152;5.844;2023-12-20T08:45:34;7.60;93.80
54202;DHT22;40108;53.152;5.844;2023-12-20T08:48:00;7.60;93.70
54202;DHT22;40108;53.152;5.844;2023-12-20T08:50:26;7.70;93.50
54202;DHT22;40108;53.152;5.844;2023-12-20T08:52:52;7.70;93.30
54202;DHT22;40108;53.152;5.844;2023-12-20T08:55:18;7.70;93.10
54202;DHT22;40108;53.152;5.844;2023-12-20T08:57:44;7.70;93.10
54202;DHT22;40108;53.152;5.844;2023-12-20T09:00:10;7.80;93.10
54202;DHT22;40108;53.152;5.844;2023-12-20T09:02:36;7.80;93.00
54202;DHT22;40108;53.152;5.844;2023-12-20T09:05:03;7.60;91.90
54202;DHT22;40108;53.152;5.844;2023-12-20T09:07:29;7.40;91.60
54202;DHT22;40108;53.152;5.844;2023-12-20T09:09:57;7.20;91.40
54202;DHT22;40108;53.152;5.844;2023-12-20T09:12:23;7.00;91.60
54202;DHT22;40108;53.152;5.844;2023-12-20T09:14:50;6.80;91.90
54202;DHT22;40108;53.152;5.844;2023-12-20T09:17:17;6.70;92.20
54202;DHT22;40108;53.152;5.844;2023-12-20T09:19:44;6.60;92.50
54202;DHT22;40108;53.152;5.844;2023-12-20T09:22:10;6.50;92.70
54202;DHT22;40108;53.152;5.844;2023-12-20T09:24:35;6.50;93.00
54202;DHT22;40108;53.152;5.844;2023-12-20T09:27:01;6.40;93.20
54202;DHT22;40108;53.152;5.844;2023-12-20T09:29:28;6.40;93.40
54202;DHT22;40108;53.152;5.844;2023-12-20T09:31:54;6.30;93.60
54202;DHT22;40108;53.152;5.844;2023-12-20T09:34:19;6.30;93.60
54202;DHT22;40108;53.152;5.844;2023-12-20T09:36:45;6.30;93.70
54202;DHT22;40108;53.152;5.844;2023-12-20T09:39:16;6.20;93.90
54202;DHT22;40108;53.152;5.844;2023-12-20T09:41:49;6.20;94.10
54202;DHT22;40108;53.152;5.844;2023-12-20T09:44:17;6.20;94.20
54202;DHT22;40108;53.152;5.844;2023-12-20T09:46:50;6.20;94.20
54202;DHT22;40108;53.152;5.844;2023-12-20T09:49:18;6.30;94.30
54202;DHT22;40108;53.152;5.844;2023-12-20T09:51:46;6.30;94.30
54202;DHT22;40108;53.152;5.844;2023-12-20T09:54:18;6.30;94.30
54202;DHT22;40108;53.152;5.844;2023-12-20T09:56:44;6.30;94.10
54202;DHT22;40108;53.152;5.844;2023-12-20T09:59:10;6.30;93.80
54202;DHT22;40108;53.152;5.844;2023-12-20T10:01:39;6.30;93.60
54202;DHT22;40108;53.152;5.844;2023-12-20T10:04:06;6.30;93.30
54202;DHT22;40108;53.152;5.844;2023-12-20T10:06:42;6.30;93.20
54202;DHT22;40108;53.152;5.844;2023-12-20T10:09:09;6.30;93.10
54202;DHT22;40108;53.152;5.844;2023-12-20T10:11:36;6.30;92.90
54202;DHT22;40108;53.152;5.844;2023-12-20T10:14:05;6.50;92.90
54202;DHT22;40108;53.152;5.844;2023-12-20T10:16:32;6.60;93.00
54202;DHT22;40108;53.152;5.844;2023-12-20T10:18:59;6.80;93.00
54202;DHT22;40108;53.152;5.844;2023-12-20T10:21:25;6.90;92.80
54202;DHT22;40108;53.152;5.844;2023-12-20T10:23:56;6.90;92.50
54202;DHT22;40108;53.152;5.844;2023-12-20T10:26:26;6.90;92.10
54202;DHT22;40108;53.152;5.844;2023-12-20T10:29:10;6.90;92.10
54202;DHT22;40108;53.152;5.844;2023-12-20T10:31:36;7.00;92.00
54202;DHT22;40108;53.152;5.844;2023-12-20T10:34:04;7.00;91.80
54202;DHT22;40108;53.152;5.844;2023-12-20T10:36:32;7.00;91.70
54202;DHT22;40108;53.152;5.844;2023-12-20T10:38:58;7.00;91.80
54202;DHT22;40108;53.152;5.844;2023-12-20T10:41:31;7.00;91.70
54202;DHT22;40108;53.152;5.844;2023-12-20T10:44:00;7.10;91.90
54202;DHT22;40108;53.152;5.844;2023-12-20T10:46:27;7.10;91.90
54202;DHT22;40108;53.152;5.844;2023-12-20T10:48:54;7.10;91.50
54202;DHT22;40108;53.152;5.844;2023-12-20T10:51:21;7.10;91.60
54202;DHT22;40108;53.152;5.844;2023-12-20T10:53:48;7.20;91.80
54202;DHT22;40108;53.152;5.844;2023-12-20T10:56:18;7.20;91.60
54202;DHT22;40108;53.152;5.844;2023-12-20T10:58:45;7.20;91.50
54202;DHT22;40108;53.152;5.844;2023-12-20T11:01:16;7.20;91.30
54202;DHT22;40108;53.152;5.844;2023-12-20T11:03:54;7.20;91.30
54202;DHT22;40108;53.152;5.844;2023-12-20T11:06:29;7.20;91.10
54202;DHT22;40108;53.152;5.844;2023-12-20T11:12:09;7.20;91.10
54202;DHT22;40108;53.152;5.844;2023-12-20T11:14:47;7.20;91.10
54202;DHT22;40108;53.152;5.844;2023-12-20T11:17:13;7.30;91.10
54202;DHT22;40108;53.152;5.844;2023-12-20T11:22:25;7.40;91.30
54202;DHT22;40108;53.152;5.844;2023-12-20T11:24:52;7.50;91.10
54202;DHT22;40108;53.152;5.844;2023-12-20T11:27:21;7.40;91.20
54202;DHT22;40108;53.152;5.844;2023-12-20T11:29:56;7.50;91.30
54202;DHT22;40108;53.152;5.844;2023-12-20T11:34:58;7.60;91.00
54202;DHT22;40108;53.152;5.844;2023-12-20T11:37:31;7.60;90.80
54202;DHT22;40108;53.152;5.844;2023-12-20T11:40:08;7.60;90.80
54202;DHT22;40108;53.152;5.844;2023-12-20T11:42:50;7.60;90.50
54202;DHT22;40108;53.152;5.844;2023-12-20T11:45:18;7.60;90.40
54202;DHT22;40108;53.152;5.844;2023-12-20T11:47:47;7.60;90.50
54202;DHT22;40108;53.152;5.844;2023-12-20T11:50:20;7.60;90.50
54202;DHT22;40108;53.152;5.844;2023-12-20T11:52:46;7.60;90.50
54202;DHT22;40108;53.152;5.844;2023-12-20T11:55:12;7.60;90.70
54202;DHT22;40108;53.152;5.844;2023-12-20T11:57:38;7.70;90.80
54202;DHT22;40108;53.152;5.844;2023-12-20T12:00:04;7.60;90.80
54202;DHT22;40108;53.152;5.844;2023-12-20T12:02:30;7.60;90.90
54202;DHT22;40108;53.152;5.844;2023-12-20T12:04:56;7.60;91.10
54202;DHT22;40108;53.152;5.844;2023-12-20T12:07:22;7.60;91.50
54202;DHT22;40108;53.152;5.844;2023-12-20T12:09:48;7.60;91.80
54202;DHT22;40108;53.152;5.844;2023-12-20T12:12:14;7.60;92.10
54202;DHT22;40108;53.152;5.844;2023-12-20T12:14:39;7.60;92.20
54202;DHT22;40108;53.152;5.844;2023-12-20T12:17:10;7.50;92.40
54202;DHT22;40108;53.152;5.844;2023-12-20T12:19:38;7.50;92.50
54202;DHT22;40108;53.152;5.844;2023-12-20T12:22:05;7.50;92.70
54202;DHT22;40108;53.152;5.844;2023-12-20T12:24:36;7.40;92.80
54202;DHT22;40108;53.152;5.844;2023-12-20T12:27:03;7.40;92.80
54202;DHT22;40108;53.152;5.844;2023-12-20T12:29:29;7.30;92.80
54202;DHT22;40108;53.152;5.844;2023-12-20T12:31:55;7.30;92.70
54202;DHT22;40108;53.152;5.844;2023-12-20T12:34:21;7.20;92.70
54202;DHT22;40108;53.152;5.844;2023-12-20T12:36:48;7.20;92.60
54202;DHT22;40108;53.152;5.844;2023-12-20T12:39:15;7.10;92.60
54202;DHT22;40108;53.152;5.844;2023-12-20T12:41:43;7.00;92.60
54202;DHT22;40108;53.152;5.844;2023-12-20T12:44:09;6.90;92.70
54202;DHT22;40108;53.152;5.844;2023-12-20T12:46:34;6.90;92.70
54202;DHT22;40108;53.152;5.844;2023-12-20T12:49:00;6.90;92.80
54202;DHT22;40108;53.152;5.844;2023-12-20T12:51:26;6.80;93.00
54202;DHT22;40108;53.152;5.844;2023-12-20T12:53:52;6.80;93.00
54202;DHT22;40108;53.152;5.844;2023-12-20T12:56:18;6.80;93.10
54202;DHT22;40108;53.152;5.844;2023-12-20T12:58:44;6.70;93.30
54202;DHT22;40108;53.152;5.844;2023-12-20T13:01:10;6.70;93.40
54202;DHT22;40108;53.152;5.844;2023-12-20T13:03:35;6.70;93.60
54202;DHT22;40108;53.152;5.844;2023-12-20T13:06:01;6.70;93.70
54202;DHT22;40108;53.152;5.844;2023-12-20T13:08:29;6.70;93.80
54202;DHT22;40108;53.152;5.844;2023-12-20T13:10:55;6.70;94.00
54202;DHT22;40108;53.152;5.844;2023-12-20T13:13:22;6.60;94.10
54202;DHT22;40108;53.152;5.844;2023-12-20T13:15:48;6.60;94.10
54202;DHT22;40108;53.152;5.844;2023-12-20T13:18:18;6.60;94.20
54202;DHT22;40108;53.152;5.844;2023-12-20T13:20:44;6.60;94.20
54202;DHT22;40108;53.152;5.844;2023-12-20T13:23:10;6.60;94.30
54202;DHT22;40108;53.152;5.844;2023-12-20T13:25:36;6.50;94.30
54202;DHT22;40108;53.152;5.844;2023-12-20T13:28:01;6.60;94.50
54202;DHT22;40108;53.152;5.844;2023-12-20T13:30:28;6.60;94.50
54202;DHT22;40108;53.152;5.844;2023-12-20T13:32:55;6.50;94.50
54202;DHT22;40108;53.152;5.844;2023-12-20T13:35:20;6.50;94.50
54202;DHT22;40108;53.152;5.844;2023-12-20T13:37:46;6.50;94.60
54202;DHT22;40108;53.152;5.844;2023-12-20T13:40:12;6.50;94.60
54202;DHT22;40108;53.152;5.844;2023-12-20T13:42:41;6.50;94.60
54202;DHT22;40108;53.152;5.844;2023-12-20T13:45:07;6.50;94.80
54202;DHT22;40108;53.152;5.844;2023-12-20T13:47:33;6.50;94.80
54202;DHT22;40108;53.152;5.844;2023-12-20T13:49:59;6.50;94.90
54202;DHT22;40108;53.152;5.844;2023-12-20T13:52:25;6.50;94.90
54202;DHT22;40108;53.152;5.844;2023-12-20T13:54:50;6.50;95.00
54202;DHT22;40108;53.152;5.844;2023-12-20T13:57:16;6.50;95.10
54202;DHT22;40108;53.152;5.844;2023-12-20T13:59:42;6.50;95.10
54202;DHT22;40108;53.152;5.844;2023-12-20T14:02:07;6.60;95.20
54202;DHT22;40108;53.152;5.844;2023-12-20T14:04:33;6.50;95.20
54202;DHT22;40108;53.152;5.844;2023-12-20T14:06:59;6.50;95.30
54202;DHT22;40108;53.152;5.844;2023-12-20T14:09:25;6.60;95.30
54202;DHT22;40108;53.152;5.844;2023-12-20T14:11:50;6.60;95.40
54202;DHT22;40108;53.152;5.844;2023-12-20T14:14:16;6.60;95.50
54202;DHT22;40108;53.152;5.844;2023-12-20T14:16:42;6.60;95.60
54202;DHT22;40108;53.152;5.844;2023-12-20T14:19:11;6.60;95.60
54202;DHT22;40108;53.152;5.844;2023-12-20T14:21:37;6.60;95.60
54202;DHT22;40108;53.152;5.844;2023-12-20T14:24:02;6.60;95.70
54202;DHT22;40108;53.152;5.844;2023-12-20T14:26:30;6.60;95.80
54202;DHT22;40108;53.152;5.844;2023-12-20T14:28:56;6.60;95.80
54202;DHT22;40108;53.152;5.844;2023-12-20T14:31:21;6.60;95.80
54202;DHT22;40108;53.152;5.844;2023-12-20T14:33:49;6.60;95.90
54202;DHT22;40108;53.152;5.844;2023-12-20T14:36:16;6.60;95.90
54202;DHT22;40108;53.152;5.844;2023-12-20T14:38:43;6.60;96.00
54202;DHT22;40108;53.152;5.844;2023-12-20T14:41:09;6.70;96.00
54202;DHT22;40108;53.152;5.844;2023-12-20T14:43:35;6.70;96.00
54202;DHT22;40108;53.152;5.844;2023-12-20T14:46:01;6.70;96.10
54202;DHT22;40108;53.152;5.844;2023-12-20T14:48:26;6.70;96.10
54202;DHT22;40108;53.152;5.844;2023-12-20T14:50:55;6.80;96.10
54202;DHT22;40108;53.152;5.844;2023-12-20T14:53:21;6.90;96.20
54202;DHT22;40108;53.152;5.844;2023-12-20T14:55:46;6.90;96.20
54202;DHT22;40108;53.152;5.844;2023-12-20T14:58:12;7.00;96.20
54202;DHT22;40108;53.152;5.844;2023-12-20T15:00:40;7.00;96.20
54202;DHT22;40108;53.152;5.844;2023-12-20T15:03:05;7.00;96.20
54202;DHT22;40108;53.152;5.844;2023-12-20T15:05:32;7.10;96.20
54202;DHT22;40108;53.152;5.844;2023-12-20T15:07:58;7.20;96.10
54202;DHT22;40108;53.152;5.844;2023-12-20T15:10:23;7.20;96.10
54202;DHT22;40108;53.152;5.844;2023-12-20T15:12:49;7.20;96.10
54202;DHT22;40108;53.152;5.844;2023-12-20T15:15:15;7.30;96.10
54202;DHT22;40108;53.152;5.844;2023-12-20T15:17:41;7.30;96.10
54202;DHT22;40108;53.152;5.844;2023-12-20T15:20:07;7.40;96.10
54202;DHT22;40108;53.152;5.844;2023-12-20T15:22:35;7.40;96.10
54202;DHT22;40108;53.152;5.844;2023-12-20T15:25:02;7.40;96.10
54202;DHT22;40108;53.152;5.844;2023-12-20T15:27:29;7.40;96.00
54202;DHT22;40108;53.152;5.844;2023-12-20T15:29:54;7.30;95.70
54202;DHT22;40108;53.152;5.844;2023-12-20T15:32:21;7.30;95.40
54202;DHT22;40108;53.152;5.844;2023-12-20T15:34:48;7.30;95.30
54202;DHT22;40108;53.152;5.844;2023-12-20T15:37:14;7.20;95.20
54202;DHT22;40108;53.152;5.844;2023-12-20T15:39:41;7.20;95.30
54202;DHT22;40108;53.152;5.844;2023-12-20T15:42:08;7.20;95.30
54202;DHT22;40108;53.152;5.844;2023-12-20T15:44:33;7.20;95.30
54202;DHT22;40108;53.152;5.844;2023-12-20T15:46:59;7.20;95.30
54202;DHT22;40108;53.152;5.844;2023-12-20T15:49:25;7.20;95.40